sensor_id;sensor_type;location;lat;lon;timestamp;temperature;humidity
37678;DHT22;23517;50.390;8.616;2023-05-20T00:00:10;13.60;36.70
37678;DHT22;23517;50.390;8.616;2023-05-20T00:02:37;13.60;36.80
37678;DHT22;23517;50.390;8.616;2023-05-20T00:05:04;13.60;36.90
37678;DHT22;23517;50.390;8.616;2023-05-20T00:07:32;13.60;36.90
37678;DHT22;23517;50.390;8.616;2023-05-20T00:09:58;13.50;37.30
37678;DHT22;23517;50.390;8.616;2023-05-20T00:12:25;13.50;37.50
37678;DHT22;23517;50.390;8.616;2023-05-20T00:14:52;13.40;37.80
37678;DHT22;23517;50.390;8.616;2023-05-20T00:17:21;13.40;38.20
37678;DHT22;23517;50.390;8.616;2023-05-20T00:19:48;13.40;38.10
37678;DHT22;23517;50.390;8.616;2023-05-20T00:22:14;13.40;38.30
37678;DHT22;23517;50.390;8.616;2023-05-20T00:24:41;13.40;38.40
37678;DHT22;23517;50.390;8.616;2023-05-20T00:27:08;13.30;38.60
37678;DHT22;23517;50.390;8.616;2023-05-20T00:29:34;13.40;38.70
37678;DHT22;23517;50.390;8.616;2023-05-20T00:32:01;13.30;38.70
37678;DHT22;23517;50.390;8.616;2023-05-20T00:34:28;13.30;38.80
37678;DHT22;23517;50.390;8.616;2023-05-20T00:36:55;13.40;38.80
37678;DHT22;23517;50.390;8.616;2023-05-20T00:39:21;13.30;38.90
37678;DHT22;23517;50.390;8.616;2023-05-20T00:41:48;13.20;39.30
37678;DHT22;23517;50.390;8.616;2023-05-20T00:44:15;13.30;39.40
37678;DHT22;23517;50.390;8.616;2023-05-20T00:46:44;13.20;39.30
37678;DHT22;23517;50.390;8.616;2023-05-20T00:49:11;13.20;39.40
37678;DHT22;23517;50.390;8.616;2023-05-20T00:51:38;13.20;39.60
37678;DHT22;23517;50.390;8.616;2023-05-20T00:54:05;13.20;39.70
37678;DHT22;23517;50.390;8.616;2023-05-20T00:56:32;13.10;40.00
37678;DHT22;23517;50.390;8.616;2023-05-20T00:58:58;13.10;40.30
37678;DHT22;23517;50.390;8.616;2023-05-20T01:01:25;13.20;40.10
37678;DHT22;23517;50.390;8.616;2023-05-20T01:03:52;13.20;40.10
37678;DHT22;23517;50.390;8.616;2023-05-20T01:06:18;13.20;40.00
37678;DHT22;23517;50.390;8.616;2023-05-20T01:08:45;13.20;40.40
37678;DHT22;23517;50.390;8.616;2023-05-20T01:11:37;13.20;40.20
37678;DHT22;23517;50.390;8.616;2023-05-20T01:14:11;13.20;40.20
37678;DHT22;23517;50.390;8.616;2023-05-20T01:16:39;13.20;40.40
37678;DHT22;23517;50.390;8.616;2023-05-20T01:22:01;13.10;40.70
37678;DHT22;23517;50.390;8.616;2023-05-20T01:24:28;13.00;41.30
37678;DHT22;23517;50.390;8.616;2023-05-20T01:26:55;12.90;41.60
37678;DHT22;23517;50.390;8.616;2023-05-20T01:29:24;12.90;41.70
37678;DHT22;23517;50.390;8.616;2023-05-20T01:31:52;12.90;41.90
37678;DHT22;23517;50.390;8.616;2023-05-20T01:34:20;12.90;42.20
37678;DHT22;23517;50.390;8.616;2023-05-20T01:36:48;12.90;42.60
37678;DHT22;23517;50.390;8.616;2023-05-20T01:39:16;12.80;42.60
37678;DHT22;23517;50.390;8.616;2023-05-20T01:41:43;12.80;42.70
37678;DHT22;23517;50.390;8.616;2023-05-20T01:44:10;12.80;42.80
37678;DHT22;23517;50.390;8.616;2023-05-20T01:46:37;12.80;43.10
37678;DHT22;23517;50.390;8.616;2023-05-20T01:49:04;12.80;43.40
37678;DHT22;23517;50.390;8.616;2023-05-20T01:51:31;12.70;43.70
37678;DHT22;23517;50.390;8.616;2023-05-20T01:54:00;12.70;43.80
37678;DHT22;23517;50.390;8.616;2023-05-20T01:56:27;12.60;44.10
37678;DHT22;23517;50.390;8.616;2023-05-20T01:58:53;12.60;44.10
37678;DHT22;23517;50.390;8.616;2023-05-20T02:01:20;12.60;44.10
37678;DHT22;23517;50.390;8.616;2023-05-20T02:03:47;12.60;44.70
37678;DHT22;23517;50.390;8.616;2023-05-20T02:06:13;12.50;45.00
37678;DHT22;23517;50.390;8.616;2023-05-20T02:08:40;12.50;45.20
37678;DHT22;23517;50.390;8.616;2023-05-20T02:11:07;12.50;45.50
37678;DHT22;23517;50.390;8.616;2023-05-20T02:13:34;12.50;45.50
37678;DHT22;23517;50.390;8.616;2023-05-20T02:16:00;12.60;45.50
37678;DHT22;23517;50.390;8.616;2023-05-20T02:18:27;12.50;45.30
37678;DHT22;23517;50.390;8.616;2023-05-20T02:20:54;12.60;45.50
37678;DHT22;23517;50.390;8.616;2023-05-20T02:23:20;12.50;45.80
37678;DHT22;23517;50.390;8.616;2023-05-20T02:25:47;12.60;45.70
37678;DHT22;23517;50.390;8.616;2023-05-20T02:28:14;12.60;46.00
37678;DHT22;23517;50.390;8.616;2023-05-20T02:30:42;12.50;46.00
37678;DHT22;23517;50.390;8.616;2023-05-20T02:33:08;12.50;46.30
37678;DHT22;23517;50.390;8.616;2023-05-20T02:35:35;12.50;46.00
37678;DHT22;23517;50.390;8.616;2023-05-20T02:38:02;12.50;46.20
37678;DHT22;23517;50.390;8.616;2023-05-20T02:40:29;12.50;46.30
37678;DHT22;23517;50.390;8.616;2023-05-20T02:42:56;12.50;46.30
37678;DHT22;23517;50.390;8.616;2023-05-20T02:45:23;12.50;46.30
37678;DHT22;23517;50.390;8.616;2023-05-20T02:47:50;12.50;46.40
37678;DHT22;23517;50.390;8.616;2023-05-20T02:50:16;12.50;46.30
37678;DHT22;23517;50.390;8.616;2023-05-20T02:52:43;12.50;46.40
37678;DHT22;23517;50.390;8.616;2023-05-20T02:55:11;12.50;46.30
37678;DHT22;23517;50.390;8.616;2023-05-20T02:57:38;12.50;46.40
37678;DHT22;23517;50.390;8.616;2023-05-20T03:00:06;12.50;46.70
37678;DHT22;23517;50.390;8.616;2023-05-20T03:02:36;12.50;46.70
37678;DHT22;23517;50.390;8.616;2023-05-20T03:05:03;12.40;47.20
37678;DHT22;23517;50.390;8.616;2023-05-20T03:07:33;12.40;47.10
37678;DHT22;23517;50.390;8.616;2023-05-20T03:10:02;12.50;47.70
37678;DHT22;23517;50.390;8.616;2023-05-20T03:12:30;12.60;46.90
37678;DHT22;23517;50.390;8.616;2023-05-20T03:14:56;12.50;47.00
37678;DHT22;23517;50.390;8.616;2023-05-20T03:17:24;12.60;47.00
37678;DHT22;23517;50.390;8.616;2023-05-20T03:19:51;12.60;47.20
37678;DHT22;23517;50.390;8.616;2023-05-20T03:22:17;12.60;47.30
37678;DHT22;23517;50.390;8.616;2023-05-20T03:24:44;12.50;47.60
37678;DHT22;23517;50.390;8.616;2023-05-20T03:27:11;12.50;47.90
37678;DHT22;23517;50.390;8.616;2023-05-20T03:29:38;12.50;48.20
37678;DHT22;23517;50.390;8.616;2023-05-20T03:32:05;12.50;48.10
37678;DHT22;23517;50.390;8.616;2023-05-20T03:34:35;12.50;48.20
37678;DHT22;23517;50.390;8.616;2023-05-20T03:37:02;12.60;47.90
37678;DHT22;23517;50.390;8.616;2023-05-20T03:39:28;12.70;47.90
37678;DHT22;23517;50.390;8.616;2023-05-20T03:41:56;12.70;47.90
37678;DHT22;23517;50.390;8.616;2023-05-20T03:44:22;12.60;48.20
37678;DHT22;23517;50.390;8.616;2023-05-20T03:46:49;12.80;47.80
37678;DHT22;23517;50.390;8.616;2023-05-20T03:49:16;12.80;47.60
37678;DHT22;23517;50.390;8.616;2023-05-20T03:51:42;12.80;47.60
37678;DHT22;23517;50.390;8.616;2023-05-20T03:54:09;12.70;48.10
37678;DHT22;23517;50.390;8.616;2023-05-20T03:56:36;12.80;48.00
37678;DHT22;23517;50.390;8.616;2023-05-20T03:59:02;12.70;48.30
37678;DHT22;23517;50.390;8.616;2023-05-20T04:01:34;12.60;48.50
37678;DHT22;23517;50.390;8.616;2023-05-20T04:04:01;12.70;48.30
37678;DHT22;23517;50.390;8.616;2023-05-20T04:06:28;12.70;48.20
37678;DHT22;23517;50.390;8.616;2023-05-20T04:08:54;12.70;48.30
37678;DHT22;23517;50.390;8.616;2023-05-20T04:11:21;12.70;48.50
37678;DHT22;23517;50.390;8.616;2023-05-20T04:13:48;12.70;48.80
37678;DHT22;23517;50.390;8.616;2023-05-20T04:16:15;12.80;48.50
37678;DHT22;23517;50.390;8.616;2023-05-20T04:18:42;12.70;48.60
37678;DHT22;23517;50.390;8.616;2023-05-20T04:21:11;12.70;48.60
37678;DHT22;23517;50.390;8.616;2023-05-20T04:23:38;12.80;48.60
37678;DHT22;23517;50.390;8.616;2023-05-20T04:26:04;12.80;48.60
37678;DHT22;23517;50.390;8.616;2023-05-20T04:28:31;12.80;48.70
37678;DHT22;23517;50.390;8.616;2023-05-20T04:31:01;12.80;48.70
37678;DHT22;23517;50.390;8.616;2023-05-20T04:33:30;12.90;48.60
37678;DHT22;23517;50.390;8.616;2023-05-20T04:35:59;12.80;48.80
37678;DHT22;23517;50.390;8.616;2023-05-20T04:38:26;12.80;49.00
37678;DHT22;23517;50.390;8.616;2023-05-20T04:40:55;12.80;49.10
37678;DHT22;23517;50.390;8.616;2023-05-20T04:43:24;12.90;49.10
37678;DHT22;23517;50.390;8.616;2023-05-20T04:45:51;12.90;49.10
37678;DHT22;23517;50.390;8.616;2023-05-20T04:48:18;12.90;49.10
37678;DHT22;23517;50.390;8.616;2023-05-20T04:50:46;13.00;48.90
37678;DHT22;23517;50.390;8.616;2023-05-20T04:53:14;13.00;48.80
37678;DHT22;23517;50.390;8.616;2023-05-20T04:55:42;13.00;48.90
37678;DHT22;23517;50.390;8.616;2023-05-20T04:58:09;13.00;48.80
37678;DHT22;23517;50.390;8.616;2023-05-20T05:00:43;13.00;48.80
37678;DHT22;23517;50.390;8.616;2023-05-20T05:03:11;13.10;48.50
37678;DHT22;23517;50.390;8.616;2023-05-20T05:05:38;13.10;48.40
37678;DHT22;23517;50.390;8.616;2023-05-20T05:08:06;13.10;48.50
37678;DHT22;23517;50.390;8.616;2023-05-20T05:10:34;13.10;48.80
37678;DHT22;23517;50.390;8.616;2023-05-20T05:13:01;13.20;48.50
37678;DHT22;23517;50.390;8.616;2023-05-20T05:15:28;13.30;48.20
37678;DHT22;23517;50.390;8.616;2023-05-20T05:17:55;13.30;47.90
37678;DHT22;23517;50.390;8.616;2023-05-20T05:20:22;13.30;48.20
37678;DHT22;23517;50.390;8.616;2023-05-20T05:22:48;13.30;47.80
37678;DHT22;23517;50.390;8.616;2023-05-20T05:25:16;13.20;47.90
37678;DHT22;23517;50.390;8.616;2023-05-20T05:27:42;13.30;48.10
37678;DHT22;23517;50.390;8.616;2023-05-20T05:30:10;13.20;48.50
37678;DHT22;23517;50.390;8.616;2023-05-20T05:32:37;13.30;48.20
37678;DHT22;23517;50.390;8.616;2023-05-20T05:35:04;13.30;48.10
37678;DHT22;23517;50.390;8.616;2023-05-20T05:37:34;13.30;48.10
37678;DHT22;23517;50.390;8.616;2023-05-20T05:40:00;13.20;48.40
37678;DHT22;23517;50.390;8.616;2023-05-20T05:42:27;13.20;48.50
37678;DHT22;23517;50.390;8.616;2023-05-20T05:44:54;13.30;48.60
37678;DHT22;23517;50.390;8.616;2023-05-20T05:47:21;13.30;48.60
37678;DHT22;23517;50.390;8.616;2023-05-20T05:49:47;13.40;48.10
37678;DHT22;23517;50.390;8.616;2023-05-20T05:52:14;13.50;47.90
37678;DHT22;23517;50.390;8.616;2023-05-20T05:54:41;13.60;47.80
37678;DHT22;23517;50.390;8.616;2023-05-20T05:57:07;13.70;47.10
37678;DHT22;23517;50.390;8.616;2023-05-20T05:59:35;13.80;46.80
37678;DHT22;23517;50.390;8.616;2023-05-20T06:02:03;13.90;46.60
37678;DHT22;23517;50.390;8.616;2023-05-20T06:04:30;13.90;46.40
37678;DHT22;23517;50.390;8.616;2023-05-20T06:06:59;14.00;46.20
37678;DHT22;23517;50.390;8.616;2023-05-20T06:09:26;14.20;45.50
37678;DHT22;23517;50.390;8.616;2023-05-20T06:11:52;14.40;44.70
37678;DHT22;23517;50.390;8.616;2023-05-20T06:14:19;14.50;44.50
37678;DHT22;23517;50.390;8.616;2023-05-20T06:16:46;14.90;43.80
37678;DHT22;23517;50.390;8.616;2023-05-20T06:19:13;15.40;41.80
37678;DHT22;23517;50.390;8.616;2023-05-20T06:21:39;15.40;59.70
37678;DHT22;23517;50.390;8.616;2023-05-20T06:24:06;15.50;62.10
37678;DHT22;23517;50.390;8.616;2023-05-20T06:26:33;15.40;64.90
37678;DHT22;23517;50.390;8.616;2023-05-20T06:28:59;15.40;69.50
37678;DHT22;23517;50.390;8.616;2023-05-20T06:31:26;15.30;70.90
37678;DHT22;23517;50.390;8.616;2023-05-20T06:33:53;15.50;69.80
37678;DHT22;23517;50.390;8.616;2023-05-20T06:36:20;15.70;70.50
37678;DHT22;23517;50.390;8.616;2023-05-20T06:38:47;15.90;74.10
37678;DHT22;23517;50.390;8.616;2023-05-20T06:41:13;15.70;76.80
37678;DHT22;23517;50.390;8.616;2023-05-20T06:43:40;15.70;75.80
37678;DHT22;23517;50.390;8.616;2023-05-20T06:46:07;15.40;76.00
37678;DHT22;23517;50.390;8.616;2023-05-20T06:48:34;15.60;77.40
37678;DHT22;23517;50.390;8.616;2023-05-20T06:51:00;15.50;77.20
37678;DHT22;23517;50.390;8.616;2023-05-20T06:53:27;15.50;75.60
37678;DHT22;23517;50.390;8.616;2023-05-20T06:55:54;15.30;75.90
37678;DHT22;23517;50.390;8.616;2023-05-20T06:58:22;15.40;76.30
37678;DHT22;23517;50.390;8.616;2023-05-20T07:00:49;15.40;76.70
37678;DHT22;23517;50.390;8.616;2023-05-20T07:03:15;15.50;75.00
37678;DHT22;23517;50.390;8.616;2023-05-20T07:05:43;15.70;75.00
37678;DHT22;23517;50.390;8.616;2023-05-20T07:08:10;15.70;74.60
37678;DHT22;23517;50.390;8.616;2023-05-20T07:10:36;15.80;74.10
37678;DHT22;23517;50.390;8.616;2023-05-20T07:13:03;16.00;73.90
37678;DHT22;23517;50.390;8.616;2023-05-20T07:15:30;16.00;74.20
37678;DHT22;23517;50.390;8.616;2023-05-20T07:17:57;16.10;75.50
37678;DHT22;23517;50.390;8.616;2023-05-20T07:20:24;16.40;76.20
37678;DHT22;23517;50.390;8.616;2023-05-20T07:22:51;16.40;73.80
37678;DHT22;23517;50.390;8.616;2023-05-20T07:25:18;16.80;38.30
37678;DHT22;23517;50.390;8.616;2023-05-20T07:27:44;17.00;37.60
37678;DHT22;23517;50.390;8.616;2023-05-20T07:30:11;17.60;36.50
37678;DHT22;23517;50.390;8.616;2023-05-20T07:32:38;17.60;35.50
37678;DHT22;23517;50.390;8.616;2023-05-20T07:35:05;17.50;35.90
37678;DHT22;23517;50.390;8.616;2023-05-20T07:37:32;17.70;35.70
37678;DHT22;23517;50.390;8.616;2023-05-20T07:39:59;17.60;35.40
37678;DHT22;23517;50.390;8.616;2023-05-20T07:42:26;17.30;36.30
37678;DHT22;23517;50.390;8.616;2023-05-20T07:44:53;17.00;37.50
37678;DHT22;23517;50.390;8.616;2023-05-20T07:47:19;17.10;36.80
37678;DHT22;23517;50.390;8.616;2023-05-20T07:49:46;16.90;37.30
37678;DHT22;23517;50.390;8.616;2023-05-20T07:52:13;17.00;37.80
37678;DHT22;23517;50.390;8.616;2023-05-20T07:54:40;16.80;37.90
37678;DHT22;23517;50.390;8.616;2023-05-20T07:57:07;17.00;37.60
37678;DHT22;23517;50.390;8.616;2023-05-20T07:59:33;17.00;38.10
37678;DHT22;23517;50.390;8.616;2023-05-20T08:02:00;17.30;37.40
37678;DHT22;23517;50.390;8.616;2023-05-20T08:04:27;17.40;37.00
37678;DHT22;23517;50.390;8.616;2023-05-20T08:06:54;17.50;36.30
37678;DHT22;23517;50.390;8.616;2023-05-20T08:09:21;17.20;37.00
37678;DHT22;23517;50.390;8.616;2023-05-20T08:11:47;17.30;37.10
37678;DHT22;23517;50.390;8.616;2023-05-20T08:14:14;17.70;36.20
37678;DHT22;23517;50.390;8.616;2023-05-20T08:16:42;17.70;36.40
37678;DHT22;23517;50.390;8.616;2023-05-20T08:19:09;17.90;35.40
37678;DHT22;23517;50.390;8.616;2023-05-20T08:21:35;18.20;34.70
37678;DHT22;23517;50.390;8.616;2023-05-20T08:24:03;19.70;31.90
37678;DHT22;23517;50.390;8.616;2023-05-20T08:26:31;20.90;28.60
37678;DHT22;23517;50.390;8.616;2023-05-20T08:28:58;21.50;27.40
37678;DHT22;23517;50.390;8.616;2023-05-20T08:33:53;23.10;22.10
37678;DHT22;23517;50.390;8.616;2023-05-20T08:36:20;23.20;23.40
37678;DHT22;23517;50.390;8.616;2023-05-20T08:38:47;21.80;25.10
37678;DHT22;23517;50.390;8.616;2023-05-20T08:41:14;20.40;27.40
37678;DHT22;23517;50.390;8.616;2023-05-20T08:43:41;19.10;30.70
37678;DHT22;23517;50.390;8.616;2023-05-20T08:46:09;18.40;32.90
37678;DHT22;23517;50.390;8.616;2023-05-20T08:48:36;18.00;34.30
37678;DHT22;23517;50.390;8.616;2023-05-20T08:51:05;17.80;35.00
37678;DHT22;23517;50.390;8.616;2023-05-20T08:53:34;17.60;35.50
37678;DHT22;23517;50.390;8.616;2023-05-20T08:56:02;17.60;35.90
37678;DHT22;23517;50.390;8.616;2023-05-20T08:58:29;17.30;36.90
37678;DHT22;23517;50.390;8.616;2023-05-20T09:00:57;17.30;37.00
37678;DHT22;23517;50.390;8.616;2023-05-20T09:03:24;17.10;37.10
37678;DHT22;23517;50.390;8.616;2023-05-20T09:06:03;17.10;37.70
37678;DHT22;23517;50.390;8.616;2023-05-20T09:08:33;17.00;38.30
37678;DHT22;23517;50.390;8.616;2023-05-20T09:11:00;17.10;38.00
37678;DHT22;23517;50.390;8.616;2023-05-20T09:13:30;17.30;38.00
37678;DHT22;23517;50.390;8.616;2023-05-20T09:15:59;17.50;37.60
37678;DHT22;23517;50.390;8.616;2023-05-20T09:18:27;17.70;36.70
37678;DHT22;23517;50.390;8.616;2023-05-20T09:20:55;17.70;36.90
37678;DHT22;23517;50.390;8.616;2023-05-20T09:23:21;17.30;37.90
37678;DHT22;23517;50.390;8.616;2023-05-20T09:25:49;17.50;37.90
37678;DHT22;23517;50.390;8.616;2023-05-20T09:28:21;17.40;37.60
37678;DHT22;23517;50.390;8.616;2023-05-20T09:30:58;17.20;38.00
37678;DHT22;23517;50.390;8.616;2023-05-20T09:33:29;17.40;38.20
37678;DHT22;23517;50.390;8.616;2023-05-20T09:36:06;17.50;37.80
37678;DHT22;23517;50.390;8.616;2023-05-20T09:38:36;17.50;37.80
37678;DHT22;23517;50.390;8.616;2023-05-20T09:41:12;17.50;38.20
37678;DHT22;23517;50.390;8.616;2023-05-20T09:43:41;17.90;37.60
37678;DHT22;23517;50.390;8.616;2023-05-20T09:46:08;17.90;37.00
37678;DHT22;23517;50.390;8.616;2023-05-20T09:48:36;17.90;37.30
37678;DHT22;23517;50.390;8.616;2023-05-20T09:51:04;18.10;36.90
37678;DHT22;23517;50.390;8.616;2023-05-20T09:53:32;18.70;35.30
37678;DHT22;23517;50.390;8.616;2023-05-20T09:55:59;19.10;34.60
37678;DHT22;23517;50.390;8.616;2023-05-20T09:58:26;19.50;33.70
37678;DHT22;23517;50.390;8.616;2023-05-20T10:00:54;20.00;32.60
37678;DHT22;23517;50.390;8.616;2023-05-20T10:03:22;19.90;32.00
37678;DHT22;23517;50.390;8.616;2023-05-20T10:06:00;19.40;32.80
37678;DHT22;23517;50.390;8.616;2023-05-20T10:08:49;19.10;33.40
37678;DHT22;23517;50.390;8.616;2023-05-20T10:11:46;18.80;34.30
37678;DHT22;23517;50.390;8.616;2023-05-20T10:17:11;18.30;35.70
37678;DHT22;23517;50.390;8.616;2023-05-20T10:19:44;18.10;36.40
37678;DHT22;23517;50.390;8.616;2023-05-20T10:22:11;18.40;35.60
37678;DHT22;23517;50.390;8.616;2023-05-20T10:24:41;18.30;35.90
37678;DHT22;23517;50.390;8.616;2023-05-20T10:27:11;18.20;35.80
37678;DHT22;23517;50.390;8.616;2023-05-20T10:32:30;18.40;35.60
37678;DHT22;23517;50.390;8.616;2023-05-20T10:35:07;18.30;36.30
37678;DHT22;23517;50.390;8.616;2023-05-20T10:37:42;18.50;36.50
37678;DHT22;23517;50.390;8.616;2023-05-20T10:40:12;18.80;36.00
37678;DHT22;23517;50.390;8.616;2023-05-20T10:42:41;19.00;35.00
37678;DHT22;23517;50.390;8.616;2023-05-20T10:45:08;19.20;34.50
37678;DHT22;23517;50.390;8.616;2023-05-20T10:47:36;19.10;34.30
37678;DHT22;23517;50.390;8.616;2023-05-20T10:50:03;19.10;34.00
37678;DHT22;23517;50.390;8.616;2023-05-20T10:52:37;18.80;34.50
37678;DHT22;23517;50.390;8.616;2023-05-20T10:55:04;18.70;35.30
37678;DHT22;23517;50.390;8.616;2023-05-20T10:57:33;18.90;35.50
37678;DHT22;23517;50.390;8.616;2023-05-20T10:59:59;19.10;34.50
37678;DHT22;23517;50.390;8.616;2023-05-20T11:02:26;18.90;34.40
37678;DHT22;23517;50.390;8.616;2023-05-20T11:04:57;19.00;34.60
37678;DHT22;23517;50.390;8.616;2023-05-20T11:07:25;19.10;33.80
37678;DHT22;23517;50.390;8.616;2023-05-20T11:09:57;19.00;34.00
37678;DHT22;23517;50.390;8.616;2023-05-20T11:12:26;19.20;33.40
37678;DHT22;23517;50.390;8.616;2023-05-20T11:14:53;19.10;34.10
37678;DHT22;23517;50.390;8.616;2023-05-20T11:17:20;19.00;34.40
37678;DHT22;23517;50.390;8.616;2023-05-20T11:19:47;19.30;33.90
37678;DHT22;23517;50.390;8.616;2023-05-20T11:22:15;19.30;33.50
37678;DHT22;23517;50.390;8.616;2023-05-20T11:24:42;19.40;33.30
37678;DHT22;23517;50.390;8.616;2023-05-20T11:27:09;19.30;33.30
37678;DHT22;23517;50.390;8.616;2023-05-20T11:29:36;19.00;34.40
37678;DHT22;23517;50.390;8.616;2023-05-20T11:32:03;19.00;34.40
37678;DHT22;23517;50.390;8.616;2023-05-20T11:34:34;19.00;33.90
37678;DHT22;23517;50.390;8.616;2023-05-20T11:37:06;19.00;34.00
37678;DHT22;23517;50.390;8.616;2023-05-20T11:39:35;19.10;34.20
37678;DHT22;23517;50.390;8.616;2023-05-20T11:42:02;19.30;33.60
37678;DHT22;23517;50.390;8.616;2023-05-20T11:44:31;19.30;33.50
37678;DHT22;23517;50.390;8.616;2023-05-20T11:46:59;19.10;33.40
37678;DHT22;23517;50.390;8.616;2023-05-20T11:49:27;19.40;33.60
37678;DHT22;23517;50.390;8.616;2023-05-20T11:51:55;19.50;32.80
37678;DHT22;23517;50.390;8.616;2023-05-20T11:54:23;19.40;32.90
37678;DHT22;23517;50.390;8.616;2023-05-20T11:56:50;19.50;32.40
37678;DHT22;23517;50.390;8.616;2023-05-20T11:59:16;19.40;32.20
37678;DHT22;23517;50.390;8.616;2023-05-20T12:01:43;19.60;32.40
37678;DHT22;23517;50.390;8.616;2023-05-20T12:04:11;19.60;32.20
37678;DHT22;23517;50.390;8.616;2023-05-20T12:06:41;19.70;32.20
37678;DHT22;23517;50.390;8.616;2023-05-20T12:09:09;19.70;31.90
37678;DHT22;23517;50.390;8.616;2023-05-20T12:11:37;19.80;31.70
37678;DHT22;23517;50.390;8.616;2023-05-20T12:14:07;19.60;31.60
37678;DHT22;23517;50.390;8.616;2023-05-20T12:16:35;19.40;31.80
37678;DHT22;23517;50.390;8.616;2023-05-20T12:19:02;19.40;32.30
37678;DHT22;23517;50.390;8.616;2023-05-20T12:21:30;19.50;32.30
37678;DHT22;23517;50.390;8.616;2023-05-20T12:24:00;19.40;33.50
37678;DHT22;23517;50.390;8.616;2023-05-20T12:26:27;19.30;33.80
37678;DHT22;23517;50.390;8.616;2023-05-20T12:28:55;19.20;33.00
37678;DHT22;23517;50.390;8.616;2023-05-20T12:31:22;19.00;33.80
37678;DHT22;23517;50.390;8.616;2023-05-20T12:33:49;19.00;33.70
37678;DHT22;23517;50.390;8.616;2023-05-20T12:36:16;19.00;34.30
37678;DHT22;23517;50.390;8.616;2023-05-20T12:38:42;19.20;33.00
37678;DHT22;23517;50.390;8.616;2023-05-20T12:41:09;19.40;33.30
37678;DHT22;23517;50.390;8.616;2023-05-20T12:43:36;19.30;32.80
37678;DHT22;23517;50.390;8.616;2023-05-20T12:46:03;19.10;33.20
37678;DHT22;23517;50.390;8.616;2023-05-20T12:48:30;19.10;33.20
37678;DHT22;23517;50.390;8.616;2023-05-20T12:50:57;19.20;33.30
37678;DHT22;23517;50.390;8.616;2023-05-20T12:53:24;19.20;33.60
37678;DHT22;23517;50.390;8.616;2023-05-20T12:55:50;19.20;33.50
37678;DHT22;23517;50.390;8.616;2023-05-20T12:58:17;18.90;33.90
37678;DHT22;23517;50.390;8.616;2023-05-20T13:00:44;18.80;33.90
37678;DHT22;23517;50.390;8.616;2023-05-20T13:03:11;18.70;34.40
37678;DHT22;23517;50.390;8.616;2023-05-20T13:05:37;19.00;34.70
37678;DHT22;23517;50.390;8.616;2023-05-20T13:08:04;19.30;34.00
37678;DHT22;23517;50.390;8.616;2023-05-20T13:10:31;19.20;34.10
37678;DHT22;23517;50.390;8.616;2023-05-20T13:12:59;19.10;34.10
37678;DHT22;23517;50.390;8.616;2023-05-20T13:15:25;19.00;34.00
37678;DHT22;23517;50.390;8.616;2023-05-20T13:17:52;19.00;33.80
37678;DHT22;23517;50.390;8.616;2023-05-20T13:20:19;19.10;35.00
37678;DHT22;23517;50.390;8.616;2023-05-20T13:22:46;19.30;34.20
37678;DHT22;23517;50.390;8.616;2023-05-20T13:25:15;19.30;33.80
37678;DHT22;23517;50.390;8.616;2023-05-20T13:27:42;19.10;34.50
37678;DHT22;23517;50.390;8.616;2023-05-20T13:30:09;19.00;34.60
37678;DHT22;23517;50.390;8.616;2023-05-20T13:32:36;19.20;34.10
37678;DHT22;23517;50.390;8.616;2023-05-20T13:35:03;19.30;33.40
37678;DHT22;23517;50.390;8.616;2023-05-20T13:37:30;19.10;34.50
37678;DHT22;23517;50.390;8.616;2023-05-20T13:39:57;19.10;34.50
37678;DHT22;23517;50.390;8.616;2023-05-20T13:42:24;18.90;34.40
37678;DHT22;23517;50.390;8.616;2023-05-20T13:44:50;18.80;34.70
37678;DHT22;23517;50.390;8.616;2023-05-20T13:47:17;18.80;34.30
37678;DHT22;23517;50.390;8.616;2023-05-20T13:49:44;18.70;34.90
37678;DHT22;23517;50.390;8.616;2023-05-20T13:52:10;18.60;35.20
37678;DHT22;23517;50.390;8.616;2023-05-20T13:54:37;18.80;35.10
37678;DHT22;23517;50.390;8.616;2023-05-20T13:57:04;19.00;34.90
37678;DHT22;23517;50.390;8.616;2023-05-20T13:59:33;19.10;34.20
37678;DHT22;23517;50.390;8.616;2023-05-20T14:02:00;19.40;34.30
37678;DHT22;23517;50.390;8.616;2023-05-20T14:04:28;19.70;33.70
37678;DHT22;23517;50.390;8.616;2023-05-20T14:06:56;19.60;33.40
37678;DHT22;23517;50.390;8.616;2023-05-20T14:09:23;19.50;33.90
37678;DHT22;23517;50.390;8.616;2023-05-20T14:11:49;19.40;34.00
37678;DHT22;23517;50.390;8.616;2023-05-20T14:14:16;19.40;33.70
37678;DHT22;23517;50.390;8.616;2023-05-20T14:16:43;19.50;33.60
37678;DHT22;23517;50.390;8.616;2023-05-20T14:19:10;19.30;34.00
37678;DHT22;23517;50.390;8.616;2023-05-20T14:21:36;19.50;34.20
37678;DHT22;23517;50.390;8.616;2023-05-20T14:24:05;19.80;33.40
37678;DHT22;23517;50.390;8.616;2023-05-20T14:26:33;19.80;33.20
37678;DHT22;23517;50.390;8.616;2023-05-20T14:29:00;19.90;33.50
37678;DHT22;23517;50.390;8.616;2023-05-20T14:31:27;19.80;33.70
37678;DHT22;23517;50.390;8.616;2023-05-20T14:33:53;19.80;33.70
37678;DHT22;23517;50.390;8.616;2023-05-20T14:36:20;19.90;33.40
37678;DHT22;23517;50.390;8.616;2023-05-20T14:38:47;19.80;33.10
37678;DHT22;23517;50.390;8.616;2023-05-20T14:41:15;19.50;33.70
37678;DHT22;23517;50.390;8.616;2023-05-20T14:43:42;19.20;34.50
37678;DHT22;23517;50.390;8.616;2023-05-20T14:46:13;19.00;35.20
37678;DHT22;23517;50.390;8.616;2023-05-20T14:48:40;19.20;34.30
37678;DHT22;23517;50.390;8.616;2023-05-20T14:51:07;19.30;34.60
37678;DHT22;23517;50.390;8.616;2023-05-20T14:53:33;19.50;34.20
37678;DHT22;23517;50.390;8.616;2023-05-20T14:56:00;19.70;33.90
37678;DHT22;23517;50.390;8.616;2023-05-20T14:58:27;19.80;33.40
37678;DHT22;23517;50.390;8.616;2023-05-20T15:00:54;19.80;33.60
37678;DHT22;23517;50.390;8.616;2023-05-20T15:03:21;19.90;33.40
37678;DHT22;23517;50.390;8.616;2023-05-20T15:05:49;20.00;33.10
37678;DHT22;23517;50.390;8.616;2023-05-20T15:08:16;20.10;33.50
37678;DHT22;23517;50.390;8.616;2023-05-20T15:10:43;20.00;33.00
37678;DHT22;23517;50.390;8.616;2023-05-20T15:13:09;19.80;33.50
37678;DHT22;23517;50.390;8.616;2023-05-20T15:15:36;19.30;33.70
37678;DHT22;23517;50.390;8.616;2023-05-20T15:18:03;19.30;34.10
37678;DHT22;23517;50.390;8.616;2023-05-20T15:20:29;19.50;34.00
37678;DHT22;23517;50.390;8.616;2023-05-20T15:22:56;19.40;33.80
37678;DHT22;23517;50.390;8.616;2023-05-20T15:25:26;19.40;34.20
37678;DHT22;23517;50.390;8.616;2023-05-20T15:27:53;19.50;34.10
37678;DHT22;23517;50.390;8.616;2023-05-20T15:30:19;19.30;33.90
37678;DHT22;23517;50.390;8.616;2023-05-20T15:32:48;19.30;34.20
37678;DHT22;23517;50.390;8.616;2023-05-20T15:35:14;19.50;34.40
37678;DHT22;23517;50.390;8.616;2023-05-20T15:37:41;19.50;34.00
37678;DHT22;23517;50.390;8.616;2023-05-20T15:40:08;19.50;33.40
37678;DHT22;23517;50.390;8.616;2023-05-20T15:42:35;19.60;33.50